NATO41 EGHQ-EGPH
Flight info
| Callsign | NATO41 |
|---|---|
| Flight time | N/A |
| Altitude | 17500 |
| Route | EPACE DCT CARWI DCT AZCAL DCT DIZIM DCT KISWO DCT AVTIC DCT ANJAK DCT NOKIN DCT RIBEL/N0177F080 DCT INPIP |
| Aircraft | F35/M-SBDGRY/S |
Departure
| Time | 2026-04-26 11:38 |
|---|---|
| Airport | Cornwall Airport Newquay (EGHQ) |
Arrival
| Time | N/A |
|---|---|
| Airport | Edinburgh Airport (EGPH) |
| Time | Latitude | Longitude | Altitude | Speed | Heading |
|---|---|---|---|---|---|
| 2026-04-26 11:30 | 50.44673 | -5.00461 | 329 ft | 0 kts | 129° |
| 2026-04-26 11:35 | 50.44669 | -5.00459 | 329 ft | 2 kts | 166° |
| 2026-04-26 11:35 | 50.44665 | -5.00534 | 322 ft | 17 kts | 277° |
| 2026-04-26 11:35 | 50.44705 | -5.00667 | 324 ft | 22 kts | 302° |
| 2026-04-26 11:36 | 50.44809 | -5.01006 | 316 ft | 4 kts | 276° |
| 2026-04-26 11:36 | 50.44771 | -5.01115 | 324 ft | 9 kts | 220° |
| 2026-04-26 11:36 | 50.44769 | -5.01118 | 336 ft | 0 kts | 218° |
| 2026-04-26 11:37 | 50.44715 | -5.01172 | 313 ft | 17 kts | 211° |
| 2026-04-26 11:37 | 50.44686 | -5.01153 | 294 ft | 0 kts | 120° |
| 2026-04-26 11:37 | 50.44672 | -5.01115 | 315 ft | 46 kts | 121° |
| 2026-04-26 11:37 | 50.44028 | -4.99386 | 390 ft | 311 kts | 120° |
| 2026-04-26 11:38 | 50.43428 | -4.97609 | 5378 ft | 83 kts | 44° |
| 2026-04-26 11:38 | 50.45296 | -4.97098 | 8130 ft | 392 kts | 12° |
| 2026-04-26 11:38 | 50.48259 | -4.94827 | 9831 ft | 531 kts | 39° |
| 2026-04-26 11:38 | 50.50457 | -4.90989 | 10944 ft | 425 kts | 54° |
| 2026-04-26 11:39 | 50.52119 | -4.87189 | 11927 ft | 424 kts | 58° |
| 2026-04-26 11:39 | 50.53192 | -4.82896 | 12776 ft | 427 kts | 89° |
| 2026-04-26 11:39 | 50.53986 | -4.78415 | 13469 ft | 440 kts | 56° |
| 2026-04-26 11:39 | 50.55994 | -4.74804 | 14275 ft | 443 kts | 59° |
| 2026-04-26 11:40 | 50.57621 | -4.70639 | 15246 ft | 446 kts | 58° |
| 2026-04-26 11:40 | 50.59406 | -4.66660 | 16266 ft | 455 kts | 53° |
| 2026-04-26 11:40 | 50.61442 | -4.62803 | 17013 ft | 463 kts | 48° |
| 2026-04-26 11:40 | 50.63685 | -4.59146 | 17328 ft | 464 kts | 44° |
| 2026-04-26 11:41 | 50.66098 | -4.55748 | 17439 ft | 464 kts | 39° |
| 2026-04-26 11:42 | 50.81379 | -4.30762 | 17568 ft | 463 kts | 75° |
| 2026-04-26 11:43 | 50.82242 | -4.25873 | 17565 ft | 461 kts | 76° |
| 2026-04-26 11:43 | 50.83085 | -4.20972 | 17547 ft | 461 kts | 76° |
| 2026-04-26 11:43 | 50.83954 | -4.16077 | 17518 ft | 462 kts | 75° |
| 2026-04-26 11:43 | 50.84857 | -4.11262 | 17510 ft | 461 kts | 74° |
| 2026-04-26 11:44 | 50.85961 | -4.06481 | 17512 ft | 462 kts | 64° |
| 2026-04-26 11:44 | 50.87606 | -4.02111 | 17507 ft | 463 kts | 55° |
| 2026-04-26 11:44 | 50.89570 | -3.98041 | 17499 ft | 465 kts | 50° |
| 2026-04-26 11:44 | 50.91711 | -3.94242 | 17496 ft | 464 kts | 46° |
| 2026-04-26 11:45 | 50.93978 | -3.90586 | 17498 ft | 463 kts | 44° |
| 2026-04-26 11:45 | 50.96285 | -3.87025 | 17500 ft | 464 kts | 44° |
| 2026-04-26 11:45 | 50.98623 | -3.83500 | 17497 ft | 463 kts | 43° |
| 2026-04-26 11:45 | 51.01040 | -3.80123 | 17503 ft | 462 kts | 37° |
| 2026-04-26 11:46 | 51.03636 | -3.77120 | 17501 ft | 463 kts | 35° |
| 2026-04-26 11:46 | 51.06180 | -3.73986 | 17501 ft | 463 kts | 39° |
| 2026-04-26 11:46 | 51.08705 | -3.70804 | 17486 ft | 463 kts | 37° |
| 2026-04-26 11:46 | 51.11269 | -3.67699 | 17486 ft | 463 kts | 37° |
| 2026-04-26 11:47 | 51.13807 | -3.64537 | 17482 ft | 461 kts | 38° |
| 2026-04-26 11:47 | 51.16342 | -3.61384 | 17501 ft | 462 kts | 37° |
| 2026-04-26 11:47 | 51.18184 | -3.59114 | 17494 ft | 461 kts | 37° |
| 2026-04-26 11:48 | 51.19592 | -3.57369 | 17494 ft | 462 kts | 37° |
| 2026-04-26 11:48 | 51.22118 | -3.54218 | 17497 ft | 462 kts | 38° |
| 2026-04-26 11:48 | 51.24599 | -3.51131 | 17489 ft | 460 kts | 37° |
| 2026-04-26 11:48 | 51.27126 | -3.47985 | 17492 ft | 461 kts | 38° |
| 2026-04-26 11:49 | 51.29668 | -3.44807 | 17489 ft | 460 kts | 38° |
| 2026-04-26 11:49 | 51.32201 | -3.41641 | 17494 ft | 460 kts | 38° |
| 2026-04-26 11:49 | 51.34726 | -3.38481 | 17487 ft | 460 kts | 38° |
| 2026-04-26 11:49 | 51.37235 | -3.35333 | 17485 ft | 459 kts | 38° |
| 2026-04-26 11:50 | 51.39834 | -3.32365 | 17495 ft | 458 kts | 26° |
| 2026-04-26 11:50 | 51.42807 | -3.30513 | 17534 ft | 457 kts | 16° |
| 2026-04-26 11:50 | 51.45880 | -3.29135 | 17526 ft | 458 kts | 13° |
| 2026-04-26 11:50 | 51.48975 | -3.27987 | 17515 ft | 456 kts | 8° |
| 2026-04-26 11:51 | 51.52092 | -3.27413 | 17522 ft | 455 kts | 4° |
| 2026-04-26 11:51 | 51.55298 | -3.26876 | 17522 ft | 457 kts | 7° |
| 2026-04-26 11:51 | 51.58432 | -3.26142 | 17526 ft | 499 kts | 6° |
| 2026-04-26 11:51 | 51.62435 | -3.25372 | 17512 ft | 608 kts | 6° |
| 2026-04-26 11:52 | 51.66648 | -3.24489 | 17533 ft | 610 kts | 7° |
| 2026-04-26 11:52 | 51.69495 | -3.23892 | 17527 ft | 612 kts | 6° |
| 2026-04-26 11:52 | 51.75106 | -3.22758 | 17538 ft | 615 kts | 7° |
| 2026-04-26 11:52 | 51.79343 | -3.21869 | 17526 ft | 615 kts | 6° |
| 2026-04-26 11:53 | 51.83600 | -3.20999 | 17527 ft | 616 kts | 7° |
| 2026-04-26 11:53 | 51.87858 | -3.20099 | 17525 ft | 615 kts | 7° |
| 2026-04-26 11:53 | 51.92112 | -3.19280 | 17521 ft | 615 kts | 2° |
| 2026-04-26 11:54 | 52.00663 | -3.18786 | 17522 ft | 615 kts | 3° |
| 2026-04-26 11:54 | 52.04939 | -3.18458 | 17517 ft | 616 kts | 1° |
| 2026-04-26 11:54 | 52.09230 | -3.18158 | 17515 ft | 616 kts | 2° |
| 2026-04-26 11:54 | 52.13502 | -3.17794 | 17500 ft | 615 kts | 2° |
| 2026-04-26 11:55 | 52.17784 | -3.17496 | 17501 ft | 616 kts | 2° |
| 2026-04-26 11:55 | 52.22069 | -3.17147 | 17518 ft | 615 kts | 2° |
| 2026-04-26 11:55 | 52.26343 | -3.16823 | 17509 ft | 615 kts | 2° |
| 2026-04-26 11:55 | 52.30572 | -3.16499 | 17498 ft | 614 kts | 2° |
| 2026-04-26 11:56 | 52.34842 | -3.16162 | 17487 ft | 615 kts | 2° |
| 2026-04-26 11:56 | 52.39104 | -3.15837 | 17492 ft | 614 kts | 2° |
| 2026-04-26 11:56 | 52.43383 | -3.15501 | 17486 ft | 615 kts | 2° |
| 2026-04-26 11:56 | 52.47664 | -3.15167 | 16766 ft | 616 kts | 2° |
| 2026-04-26 11:57 | 52.51950 | -3.14835 | 16009 ft | 617 kts | 2° |
| 2026-04-26 11:57 | 52.56237 | -3.14498 | 15286 ft | 618 kts | 2° |
| 2026-04-26 11:57 | 52.60553 | -3.14160 | 14564 ft | 620 kts | 2° |
| 2026-04-26 11:57 | 52.64852 | -3.13823 | 13848 ft | 617 kts | 2° |
| 2026-04-26 11:58 | 52.68822 | -3.13425 | 12403 ft | 534 kts | 7° |
| 2026-04-26 11:58 | 52.72276 | -3.12237 | 10721 ft | 489 kts | 14° |
| 2026-04-26 11:58 | 52.75415 | -3.10641 | 9063 ft | 455 kts | 22° |
| 2026-04-26 11:58 | 52.78202 | -3.08444 | 7724 ft | 430 kts | 28° |
| 2026-04-26 11:59 | 52.80719 | -3.06242 | 7449 ft | 394 kts | 26° |
| 2026-04-26 11:59 | 52.83233 | -3.04371 | 7508 ft | 396 kts | 24° |
| 2026-04-26 11:59 | 52.85726 | -3.02425 | 7533 ft | 396 kts | 26° |
| 2026-04-26 11:59 | 52.88195 | -3.00428 | 7531 ft | 395 kts | 26° |
| 2026-04-26 12:00 | 52.90665 | -2.98428 | 7525 ft | 397 kts | 28° |
| 2026-04-26 12:00 | 52.92948 | -2.96083 | 6798 ft | 374 kts | 34° |
| 2026-04-26 12:00 | 52.94335 | -2.94485 | 6300 ft | 360 kts | 36° |
| 2026-04-26 12:00 | 52.96314 | -2.92093 | 5549 ft | 343 kts | 37° |
| 2026-04-26 12:01 | 52.98176 | -2.89766 | 4809 ft | 332 kts | 37° |
| 2026-04-26 12:01 | 52.99878 | -2.87240 | 4099 ft | 326 kts | 46° |
| 2026-04-26 12:01 | 53.01425 | -2.84486 | 3718 ft | 325 kts | 48° |
| 2026-04-26 12:01 | 53.02914 | -2.81678 | 3569 ft | 323 kts | 49° |
| 2026-04-26 12:02 | 53.04387 | -2.78834 | 3528 ft | 325 kts | 50° |
| 2026-04-26 12:02 | 53.05857 | -2.75969 | 3507 ft | 326 kts | 50° |
| 2026-04-26 12:02 | 53.07332 | -2.73085 | 3494 ft | 325 kts | 50° |
| 2026-04-26 12:02 | 53.08770 | -2.70268 | 3492 ft | 324 kts | 50° |
| 2026-04-26 12:03 | 53.10249 | -2.67371 | 3486 ft | 326 kts | 50° |
| 2026-04-26 12:03 | 53.11305 | -2.64133 | 3534 ft | 327 kts | 79° |
| 2026-04-26 12:03 | 53.11178 | -2.60390 | 3598 ft | 320 kts | 111° |
| 2026-04-26 12:03 | 53.10804 | -2.56732 | 3638 ft | 325 kts | 89° |
| 2026-04-26 12:04 | 53.11324 | -2.53127 | 3356 ft | 315 kts | 65° |
| 2026-04-26 12:04 | 53.12566 | -2.50277 | 2693 ft | 300 kts | 41° |
| 2026-04-26 12:04 | 53.14261 | -2.48546 | 2366 ft | 274 kts | 19° |
| 2026-04-26 12:04 | 53.16125 | -2.48038 | 2185 ft | 269 kts | 356° |
| 2026-04-26 12:05 | 53.17945 | -2.48648 | 2102 ft | 267 kts | 342° |
| 2026-04-26 12:05 | 53.19753 | -2.49417 | 2200 ft | 269 kts | 358° |
| 2026-04-26 12:05 | 53.21553 | -2.48690 | 2280 ft | 271 kts | 29° |
| 2026-04-26 12:05 | 53.23128 | -2.46965 | 2213 ft | 268 kts | 37° |
| 2026-04-26 12:06 | 53.24606 | -2.45097 | 2026 ft | 266 kts | 39° |
| 2026-04-26 12:06 | 53.25938 | -2.43280 | 1971 ft | 236 kts | 46° |
| 2026-04-26 12:06 | 53.27082 | -2.41278 | 2046 ft | 236 kts | 51° |
| 2026-04-26 12:06 | 53.28143 | -2.39187 | 2078 ft | 234 kts | 53° |
| 2026-04-26 12:07 | 53.29166 | -2.37055 | 1991 ft | 232 kts | 53° |
| 2026-04-26 12:07 | 53.30152 | -2.34948 | 1958 ft | 234 kts | 54° |
| 2026-04-26 12:07 | 53.31122 | -2.32848 | 1964 ft | 230 kts | 55° |
| 2026-04-26 12:07 | 53.32124 | -2.30675 | 1970 ft | 230 kts | 54° |
| 2026-04-26 12:08 | 53.33101 | -2.28546 | 1968 ft | 232 kts | 55° |
| 2026-04-26 12:08 | 53.34079 | -2.26415 | 1984 ft | 230 kts | 56° |
| 2026-04-26 12:08 | 53.35058 | -2.24292 | 1968 ft | 230 kts | 55° |
| 2026-04-26 12:08 | 53.36047 | -2.22149 | 1953 ft | 228 kts | 55° |
| 2026-04-26 12:09 | 53.37026 | -2.20017 | 1968 ft | 229 kts | 55° |
| 2026-04-26 12:09 | 53.38004 | -2.17871 | 1978 ft | 231 kts | 55° |
| 2026-04-26 12:09 | 53.38972 | -2.15752 | 1995 ft | 228 kts | 55° |
| 2026-04-26 12:09 | 53.39953 | -2.13613 | 1982 ft | 230 kts | 55° |
| 2026-04-26 12:10 | 53.40984 | -2.11564 | 1994 ft | 229 kts | 33° |
| 2026-04-26 12:10 | 53.42514 | -2.11223 | 1984 ft | 233 kts | 337° |
| 2026-04-26 12:10 | 53.43340 | -2.13030 | 1888 ft | 193 kts | 262° |
| 2026-04-26 12:10 | 53.42557 | -2.14683 | 1471 ft | 188 kts | 211° |
| 2026-04-26 12:11 | 53.41472 | -2.15815 | 1400 ft | 173 kts | 210° |
| 2026-04-26 12:11 | 53.40535 | -2.17030 | 1250 ft | 171 kts | 221° |
| 2026-04-26 12:11 | 53.39747 | -2.18520 | 1088 ft | 172 kts | 227° |
| 2026-04-26 12:11 | 53.38982 | -2.20103 | 951 ft | 177 kts | 229° |
| 2026-04-26 12:12 | 53.38217 | -2.21656 | 811 ft | 172 kts | 229° |
| 2026-04-26 12:12 | 53.37468 | -2.23193 | 915 ft | 170 kts | 229° |
| 2026-04-26 12:12 | 53.36676 | -2.24889 | 1194 ft | 190 kts | 226° |
| 2026-04-26 12:12 | 53.35958 | -2.25587 | 1410 ft | 184 kts | 185° |
| 2026-04-26 12:13 | 53.34472 | -2.24356 | 1432 ft | 187 kts | 145° |
| 2026-04-26 12:13 | 53.33609 | -2.22828 | 1551 ft | 188 kts | 103° |
| 2026-04-26 12:13 | 53.34186 | -2.20850 | 1478 ft | 206 kts | 52° |
| 2026-04-26 12:13 | 53.35102 | -2.19083 | 1499 ft | 199 kts | 51° |
| 2026-04-26 12:14 | 53.37557 | -2.18733 | 1539 ft | 195 kts | 311° |
| 2026-04-26 12:14 | 53.37922 | -2.22334 | 901 ft | 173 kts | 226° |
| 2026-04-26 12:15 | 53.37134 | -2.23846 | 610 ft | 172 kts | 229° |
| 2026-04-26 12:15 | 53.36390 | -2.25396 | 375 ft | 168 kts | 230° |
| 2026-04-26 12:15 | 53.35703 | -2.26822 | 249 ft | 148 kts | 230° |
| 2026-04-26 12:15 | 53.34966 | -2.28336 | 364 ft | 222 kts | 229° |
| 2026-04-26 12:16 | 53.33795 | -2.30745 | 1152 ft | 260 kts | 227° |
| 2026-04-26 12:16 | 53.32429 | -2.31761 | 1356 ft | 193 kts | 171° |
| 2026-04-26 12:16 | 53.31285 | -2.30570 | 1459 ft | 198 kts | 140° |
| 2026-04-26 12:16 | 53.30281 | -2.29026 | 1525 ft | 194 kts | 135° |
| 2026-04-26 12:17 | 53.29932 | -2.26890 | 1638 ft | 205 kts | 78° |
| 2026-04-26 12:17 | 53.30765 | -2.24913 | 1619 ft | 208 kts | 52° |
| 2026-04-26 12:17 | 53.31740 | -2.23089 | 1661 ft | 210 kts | 51° |
| 2026-04-26 12:17 | 53.32719 | -2.21271 | 1736 ft | 209 kts | 51° |
| 2026-04-26 12:18 | 53.33663 | -2.19429 | 1817 ft | 209 kts | 54° |
| 2026-04-26 12:18 | 53.34541 | -2.17476 | 1916 ft | 208 kts | 57° |
| 2026-04-26 12:18 | 53.35489 | -2.15592 | 1858 ft | 211 kts | 50° |
| 2026-04-26 12:18 | 53.36489 | -2.13782 | 1792 ft | 211 kts | 49° |
| 2026-04-26 12:19 | 53.37499 | -2.12001 | 1764 ft | 214 kts | 49° |
| 2026-04-26 12:19 | 53.38510 | -2.10220 | 1763 ft | 211 kts | 49° |
| 2026-04-26 12:19 | 53.39626 | -2.08693 | 1736 ft | 210 kts | 12° |
| 2026-04-26 12:19 | 53.40926 | -2.09637 | 1739 ft | 212 kts | 320° |
| 2026-04-26 12:20 | 53.42057 | -2.11226 | 1780 ft | 212 kts | 317° |
| 2026-04-26 12:20 | 53.42229 | -2.13283 | 1580 ft | 202 kts | 230° |
| 2026-04-26 12:20 | 53.41358 | -2.15089 | 1434 ft | 196 kts | 228° |
| 2026-04-26 12:20 | 53.40562 | -2.16760 | 1283 ft | 175 kts | 228° |
| 2026-04-26 12:21 | 53.39789 | -2.18375 | 1109 ft | 172 kts | 228° |
| 2026-04-26 12:21 | 53.39016 | -2.19991 | 945 ft | 180 kts | 229° |
| 2026-04-26 12:21 | 53.38241 | -2.21599 | 799 ft | 178 kts | 229° |
| 2026-04-26 12:21 | 53.37467 | -2.23193 | 641 ft | 175 kts | 229° |
| 2026-04-26 12:22 | 53.36655 | -2.24853 | 599 ft | 220 kts | 229° |
| 2026-04-26 12:22 | 53.35321 | -2.27553 | 1328 ft | 373 kts | 229° |
| 2026-04-26 12:22 | 53.33713 | -2.30470 | 1581 ft | 316 kts | 208° |
| 2026-04-26 12:22 | 53.31834 | -2.30564 | 1667 ft | 256 kts | 150° |
| 2026-04-26 12:23 | 53.30533 | -2.28868 | 1641 ft | 216 kts | 142° |
| 2026-04-26 12:23 | 53.29945 | -2.26865 | 1612 ft | 200 kts | 79° |
| 2026-04-26 12:23 | 53.30820 | -2.24941 | 1603 ft | 210 kts | 50° |
| 2026-04-26 12:23 | 53.31814 | -2.23179 | 1624 ft | 210 kts | 49° |
| 2026-04-26 12:24 | 53.32816 | -2.21386 | 1610 ft | 209 kts | 50° |
| 2026-04-26 12:24 | 53.33837 | -2.19613 | 1605 ft | 207 kts | 47° |
| 2026-04-26 12:24 | 53.34850 | -2.17852 | 1630 ft | 208 kts | 49° |
| 2026-04-26 12:25 | 53.36872 | -2.14259 | 1730 ft | 213 kts | 50° |
| 2026-04-26 12:25 | 53.37857 | -2.12447 | 1688 ft | 212 kts | 49° |
| 2026-04-26 12:25 | 53.38858 | -2.10659 | 1715 ft | 210 kts | 49° |
| 2026-04-26 12:25 | 53.39862 | -2.08885 | 1751 ft | 210 kts | 48° |
| 2026-04-26 12:26 | 53.40875 | -2.07103 | 1759 ft | 210 kts | 49° |
| 2026-04-26 12:26 | 53.42140 | -2.06046 | 1734 ft | 215 kts | 358° |
| 2026-04-26 12:26 | 53.43331 | -2.07286 | 1324 ft | 201 kts | 311° |
| 2026-04-26 12:26 | 53.44208 | -2.09129 | 1342 ft | 207 kts | 284° |
| 2026-04-26 12:27 | 53.44478 | -2.11502 | 1619 ft | 205 kts | 255° |
| 2026-04-26 12:27 | 53.43601 | -2.13186 | 1371 ft | 195 kts | 211° |
| 2026-04-26 12:27 | 53.42456 | -2.14412 | 1450 ft | 190 kts | 212° |
| 2026-04-26 12:27 | 53.41448 | -2.15653 | 1445 ft | 175 kts | 216° |
| 2026-04-26 12:28 | 53.40549 | -2.17029 | 1216 ft | 173 kts | 223° |
| 2026-04-26 12:28 | 53.39745 | -2.18570 | 1045 ft | 173 kts | 227° |
| 2026-04-26 12:28 | 53.38951 | -2.20149 | 929 ft | 175 kts | 227° |
| 2026-04-26 12:28 | 53.38172 | -2.21724 | 798 ft | 175 kts | 229° |
| 2026-04-26 12:29 | 53.37400 | -2.23309 | 640 ft | 174 kts | 229° |
| 2026-04-26 12:29 | 53.36655 | -2.24849 | 427 ft | 168 kts | 228° |
| 2026-04-26 12:29 | 53.35204 | -2.27830 | 236 ft | 153 kts | 232° |
| 2026-04-26 12:30 | 53.34311 | -2.29697 | 1939 ft | 157 kts | 230° |
| 2026-04-26 12:30 | 53.33922 | -2.30728 | 7608 ft | 122 kts | 237° |
| 2026-04-26 12:30 | 53.33029 | -2.33166 | 10443 ft | 385 kts | 238° |
| 2026-04-26 12:31 | 53.29875 | -2.41750 | 13712 ft | 436 kts | 238° |
| 2026-04-26 12:31 | 53.28301 | -2.46006 | 18250 ft | 484 kts | 238° |
| 2026-04-26 12:31 | 53.26506 | -2.50858 | 18329 ft | 499 kts | 238° |
| 2026-04-26 12:31 | 53.25273 | -2.56230 | 18273 ft | 498 kts | 261° |
| 2026-04-26 12:32 | 53.25477 | -2.61962 | 18318 ft | 500 kts | 285° |
| 2026-04-26 12:32 | 53.27084 | -2.67135 | 18450 ft | 509 kts | 308° |
| 2026-04-26 12:32 | 53.33124 | -2.73105 | 18550 ft | 518 kts | 349° |
| 2026-04-26 12:33 | 53.36715 | -2.72806 | 18539 ft | 523 kts | 15° |
| 2026-04-26 12:33 | 53.40021 | -2.70225 | 18723 ft | 528 kts | 34° |
| 2026-04-26 12:33 | 53.42617 | -2.65850 | 18792 ft | 532 kts | 57° |
| 2026-04-26 12:33 | 53.43985 | -2.60187 | 18800 ft | 530 kts | 81° |
| 2026-04-26 12:34 | 53.43987 | -2.53998 | 18819 ft | 530 kts | 95° |
| 2026-04-26 12:34 | 53.44152 | -2.47845 | 18826 ft | 530 kts | 80° |
| 2026-04-26 12:34 | 53.45228 | -2.41991 | 18804 ft | 532 kts | 61° |
| 2026-04-26 12:34 | 53.47569 | -2.37232 | 18814 ft | 528 kts | 37° |
| 2026-04-26 12:35 | 53.50761 | -2.34273 | 18857 ft | 525 kts | 17° |
| 2026-04-26 12:35 | 53.54344 | -2.33292 | 18882 ft | 521 kts | 1° |
| 2026-04-26 12:35 | 53.57932 | -2.32301 | 18867 ft | 524 kts | 11° |
| 2026-04-26 12:35 | 53.61501 | -2.31035 | 18838 ft | 523 kts | 10° |
| 2026-04-26 12:36 | 53.65023 | -2.29824 | 18827 ft | 524 kts | 10° |
| 2026-04-26 12:36 | 53.68629 | -2.28599 | 18822 ft | 522 kts | 10° |
| 2026-04-26 12:36 | 53.72230 | -2.27639 | 18822 ft | 520 kts | 360° |
| 2026-04-26 12:36 | 53.75792 | -2.28359 | 18852 ft | 517 kts | 341° |
| 2026-04-26 12:37 | 53.79107 | -2.30653 | 18864 ft | 515 kts | 333° |
| 2026-04-26 12:37 | 53.82360 | -2.32941 | 18844 ft | 515 kts | 342° |
| 2026-04-26 12:37 | 53.85903 | -2.34032 | 18852 ft | 519 kts | 354° |
| 2026-04-26 12:37 | 53.89512 | -2.34100 | 18850 ft | 521 kts | 2° |
| 2026-04-26 12:38 | 53.93124 | -2.33465 | 18839 ft | 521 kts | 7° |
| 2026-04-26 12:38 | 53.96698 | -2.32348 | 18829 ft | 523 kts | 14° |
| 2026-04-26 12:38 | 54.00171 | -2.30412 | 18816 ft | 523 kts | 13° |
| 2026-04-26 12:38 | 54.03750 | -2.29783 | 18843 ft | 518 kts | 354° |
| 2026-04-26 12:39 | 54.07254 | -2.31067 | 18864 ft | 515 kts | 338° |
| 2026-04-26 12:39 | 54.10541 | -2.33474 | 18850 ft | 514 kts | 333° |
| 2026-04-26 12:39 | 54.13746 | -2.36158 | 18839 ft | 512 kts | 331° |
| 2026-04-26 12:39 | 54.16919 | -2.38930 | 18816 ft | 513 kts | 331° |
| 2026-04-26 12:40 | 54.20083 | -2.41728 | 18811 ft | 511 kts | 331° |
| 2026-04-26 12:40 | 54.23319 | -2.44135 | 18808 ft | 515 kts | 338° |
| 2026-04-26 12:40 | 54.26671 | -2.46275 | 18798 ft | 512 kts | 336° |
| 2026-04-26 12:40 | 54.29955 | -2.48673 | 18807 ft | 514 kts | 335° |
| 2026-04-26 12:41 | 54.33247 | -2.50950 | 18795 ft | 513 kts | 336° |
| 2026-04-26 12:41 | 54.36570 | -2.53259 | 18800 ft | 513 kts | 335° |
| 2026-04-26 12:41 | 54.39868 | -2.55608 | 18796 ft | 514 kts | 336° |
| 2026-04-26 12:41 | 54.43172 | -2.57912 | 18798 ft | 513 kts | 336° |
| 2026-04-26 12:42 | 54.46477 | -2.60245 | 18800 ft | 514 kts | 336° |
| 2026-04-26 12:42 | 54.49781 | -2.62584 | 18801 ft | 513 kts | 336° |
| 2026-04-26 12:42 | 54.53090 | -2.64917 | 18784 ft | 513 kts | 336° |
| 2026-04-26 12:42 | 54.56389 | -2.67257 | 18790 ft | 513 kts | 336° |
| 2026-04-26 12:43 | 54.59698 | -2.69607 | 18798 ft | 513 kts | 336° |
| 2026-04-26 12:43 | 54.62999 | -2.71951 | 18804 ft | 513 kts | 335° |
| 2026-04-26 12:43 | 54.66294 | -2.74300 | 18795 ft | 513 kts | 335° |
| 2026-04-26 12:43 | 54.69595 | -2.76655 | 18798 ft | 513 kts | 335° |
| 2026-04-26 12:44 | 54.72856 | -2.78985 | 18796 ft | 512 kts | 335° |
| 2026-04-26 12:44 | 54.76123 | -2.81454 | 18804 ft | 513 kts | 334° |
| 2026-04-26 12:44 | 54.79549 | -2.83128 | 18812 ft | 518 kts | 352° |
| 2026-04-26 12:44 | 54.83156 | -2.82856 | 18843 ft | 523 kts | 11° |
| 2026-04-26 12:45 | 54.86568 | -2.80633 | 18850 ft | 528 kts | 29° |
| 2026-04-26 12:45 | 54.89437 | -2.76664 | 18855 ft | 531 kts | 47° |
| 2026-04-26 12:45 | 54.91482 | -2.71318 | 18848 ft | 533 kts | 66° |
| 2026-04-26 12:45 | 54.92488 | -2.65157 | 18849 ft | 534 kts | 84° |
| 2026-04-26 12:46 | 54.92365 | -2.58739 | 18843 ft | 530 kts | 102° |
| 2026-04-26 12:46 | 54.91128 | -2.52740 | 18836 ft | 518 kts | 121° |
| 2026-04-26 12:46 | 54.88750 | -2.47459 | 18836 ft | 608 kts | 138° |
| 2026-04-26 12:46 | 54.85437 | -2.42828 | 18840 ft | 613 kts | 146° |
| 2026-04-26 12:47 | 54.83110 | -2.40025 | 18814 ft | 616 kts | 148° |
| 2026-04-26 12:47 | 54.79521 | -2.35947 | 18802 ft | 617 kts | 149° |
| 2026-04-26 12:47 | 54.75899 | -2.31972 | 18797 ft | 618 kts | 149° |
| 2026-04-26 12:47 | 54.72238 | -2.28026 | 18800 ft | 618 kts | 149° |
| 2026-04-26 12:48 | 54.68585 | -2.24121 | 18805 ft | 619 kts | 150° |
| 2026-04-26 12:48 | 54.63734 | -2.18964 | 18801 ft | 619 kts | 150° |
| 2026-04-26 12:48 | 54.61255 | -2.16336 | 18785 ft | 618 kts | 150° |
| 2026-04-26 12:48 | 54.57573 | -2.12442 | 18805 ft | 618 kts | 150° |
| 2026-04-26 12:49 | 54.53952 | -2.08619 | 18796 ft | 618 kts | 150° |
| 2026-04-26 12:49 | 54.50236 | -2.04705 | 18800 ft | 619 kts | 150° |
| 2026-04-26 12:49 | 54.46607 | -2.00891 | 18807 ft | 619 kts | 150° |
| 2026-04-26 12:49 | 54.42932 | -1.97036 | 18806 ft | 619 kts | 150° |
| 2026-04-26 12:50 | 54.39253 | -1.93184 | 18807 ft | 619 kts | 150° |
| 2026-04-26 12:50 | 54.35573 | -1.89341 | 18801 ft | 620 kts | 150° |
| 2026-04-26 12:50 | 54.31885 | -1.85496 | 18811 ft | 619 kts | 150° |
| 2026-04-26 12:50 | 54.28205 | -1.81665 | 18805 ft | 619 kts | 150° |
| 2026-04-26 12:51 | 54.24522 | -1.77839 | 18569 ft | 619 kts | 150° |
| 2026-04-26 12:51 | 54.20843 | -1.74026 | 17760 ft | 620 kts | 150° |
| 2026-04-26 12:51 | 54.17142 | -1.70206 | 16985 ft | 621 kts | 150° |
| 2026-04-26 12:51 | 54.13434 | -1.66398 | 16212 ft | 623 kts | 150° |
| 2026-04-26 12:52 | 54.09718 | -1.62597 | 15479 ft | 625 kts | 150° |
| 2026-04-26 12:52 | 54.06142 | -1.58949 | 14469 ft | 547 kts | 150° |
| 2026-04-26 12:52 | 54.02992 | -1.56078 | 12402 ft | 484 kts | 161° |
| 2026-04-26 12:52 | 53.99863 | -1.55052 | 10660 ft | 436 kts | 181° |
| 2026-04-26 12:53 | 53.96926 | -1.55307 | 9058 ft | 411 kts | 187° |
| 2026-04-26 12:53 | 53.94157 | -1.55867 | 7579 ft | 392 kts | 189° |
| 2026-04-26 12:53 | 53.91522 | -1.56514 | 6726 ft | 379 kts | 189° |
| 2026-04-26 12:53 | 53.88918 | -1.57205 | 6766 ft | 377 kts | 190° |